Time;durP1;ratioP1;P1;durP2;ratioP2;P2;SDS_P1;SDS_P2;PMS_P1;PMS_P2;Temp;Humidity;BMP_temperature;BMP_pressure;BME280_temperature;BME280_humidity;BME280_pressure;Samples;Min_cycle;Max_cycle;Signal;HPM_P1;HPM_P2
2023/04/08 00:01:01;;;;;;;11.70;8.75;;;5.80;99.90;;;;;;5135538;27;20039;-56
2023/04/08 00:03:27;;;;;;;14.75;9.52;;;5.80;99.90;;;;;;5132962;27;20078;-57
2023/04/08 00:05:53;;;;;;;11.20;8.82;;;5.80;99.90;;;;;;5133359;28;20041;-56
2023/04/08 00:08:18;;;;;;;14.80;8.98;;;5.70;99.90;;;;;;5114229;28;20134;-56
2023/04/08 00:10:44;;;;;;;13.48;9.80;;;5.80;99.90;;;;;;5096815;27;20074;-57
2023/04/08 00:13:10;;;;;;;14.77;9.82;;;5.70;99.90;;;;;;5134375;27;20043;-57
2023/04/08 00:15:36;;;;;;;13.43;9.50;;;5.60;99.90;;;;;;5137113;27;20039;-57
2023/04/08 00:18:02;;;;;;;14.75;9.85;;;5.60;99.90;;;;;;5137025;27;20396;-57
2023/04/08 00:20:28;;;;;;;13.82;9.70;;;5.60;99.90;;;;;;5137033;27;20110;-57
2023/04/08 00:22:54;;;;;;;12.75;10.88;;;5.60;99.90;;;;;;5136988;27;20054;-57
2023/04/08 00:25:19;;;;;;;14.23;10.00;;;5.50;99.90;;;;;;5147727;27;20034;-58
2023/04/08 00:27:45;;;;;;;15.13;10.13;;;5.60;99.90;;;;;;5157661;27;20094;-59
2023/04/08 00:30:11;;;;;;;17.23;10.50;;;5.50;99.90;;;;;;5148408;27;20400;-57
2023/04/08 00:32:36;;;;;;;13.73;10.10;;;5.50;99.90;;;;;;5118367;27;20117;-56
2023/04/08 00:35:03;;;;;;;13.65;9.52;;;5.50;99.90;;;;;;5136460;27;20039;-57
2023/04/08 00:37:30;;;;;;;12.50;10.18;;;5.40;99.90;;;;;;5136602;27;20069;-57
2023/04/08 00:39:55;;;;;;;13.00;10.23;;;5.40;99.90;;;;;;5136493;27;20039;-56
2023/04/08 00:42:21;;;;;;;15.02;10.55;;;5.40;99.90;;;;;;5136535;27;20034;-56
2023/04/08 00:44:47;;;;;;;15.32;10.80;;;5.40;99.90;;;;;;5118656;27;20389;-56
2023/04/08 00:47:15;;;;;;;16.83;11.98;;;5.40;99.90;;;;;;5136396;27;20035;-56
2023/04/08 00:49:41;;;;;;;14.80;11.10;;;5.40;99.90;;;;;;5136675;27;20046;-56
2023/04/08 00:52:07;;;;;;;18.52;11.57;;;5.30;99.90;;;;;;5136420;27;20039;-56
2023/04/08 00:54:33;;;;;;;15.52;11.35;;;5.30;99.90;;;;;;5117797;27;20460;-56
2023/04/08 00:57:00;;;;;;;14.23;10.80;;;5.30;99.90;;;;;;5136506;27;20050;-57
2023/04/08 00:59:26;;;;;;;15.38;11.55;;;5.30;99.90;;;;;;5139047;27;20540;-56
2023/04/08 01:01:59;;;;;;;14.63;11.05;;;5.30;99.90;;;;;;5157086;27;20494;-56
2023/04/08 01:04:27;;;;;;;15.65;11.80;;;5.20;99.90;;;;;;5156912;27;20041;-56
2023/04/08 01:06:58;;;;;;;16.77;11.85;;;5.20;99.90;;;;;;5138448;27;20037;-56
2023/04/08 01:09:29;;;;;;;14.73;11.77;;;5.30;99.90;;;;;;5138344;27;20168;-56
2023/04/08 01:11:56;;;;;;;13.38;11.60;;;5.30;99.90;;;;;;5156744;27;20107;-56
2023/04/08 01:14:26;;;;;;;14.50;11.63;;;5.20;99.90;;;;;;5156460;27;20391;-56
2023/04/08 01:16:55;;;;;;;18.92;12.15;;;5.20;99.90;;;;;;5156857;27;20432;-57
2023/04/08 01:19:29;;;;;;;18.20;12.30;;;5.10;99.90;;;;;;5156559;27;20051;-57
2023/04/08 01:22:02;;;;;;;17.58;12.57;;;5.20;99.90;;;;;;5137819;27;20096;-57
2023/04/08 01:24:32;;;;;;;14.77;12.40;;;5.20;99.90;;;;;;5156163;27;20041;-57
2023/04/08 01:27:00;;;;;;;20.17;13.45;;;5.10;99.90;;;;;;5138106;27;20030;-58
2023/04/08 01:29:27;;;;;;;18.40;13.55;;;5.10;99.90;;;;;;5156593;27;20035;-57
2023/04/08 01:31:54;;;;;;;17.40;13.48;;;5.10;99.90;;;;;;5156331;27;20503;-57
2023/04/08 01:34:20;;;;;;;18.90;14.20;;;5.10;99.90;;;;;;5156106;27;20063;-57
2023/04/08 01:36:48;;;;;;;16.23;13.95;;;5.10;99.90;;;;;;5156167;27;20122;-57
2023/04/08 01:39:16;;;;;;;21.83;14.68;;;5.00;99.90;;;;;;5156222;27;20041;-57
2023/04/08 01:41:42;;;;;;;18.02;13.48;;;5.00;99.90;;;;;;5156256;27;20060;-57
2023/04/08 01:44:10;;;;;;;19.25;14.15;;;5.00;99.90;;;;;;5156394;27;20039;-57
2023/04/08 01:46:38;;;;;;;18.90;14.45;;;5.00;99.90;;;;;;5137509;27;20042;-56
2023/04/08 01:49:05;;;;;;;20.80;14.88;;;5.00;99.90;;;;;;5155907;27;20031;-57
2023/04/08 01:51:31;;;;;;;21.67;15.52;;;4.90;99.90;;;;;;5137673;27;20030;-57
2023/04/08 01:53:57;;;;;;;20.02;15.27;;;5.00;99.90;;;;;;5156099;27;20159;-57
2023/04/08 01:56:27;;;;;;;24.17;15.60;;;4.90;99.90;;;;;;5138485;27;20113;-57
2023/04/08 01:58:57;;;;;;;21.38;15.38;;;4.90;99.90;;;;;;5134937;27;20046;-57
2023/04/08 02:01:25;;;;;;;20.75;15.35;;;4.90;99.90;;;;;;5135386;27;20092;-56
2023/04/08 02:03:56;;;;;;;23.00;15.98;;;4.90;99.90;;;;;;5135190;27;20452;-57
2023/04/08 02:06:22;;;;;;;21.50;15.55;;;4.90;99.90;;;;;;5135251;27;20393;-56
2023/04/08 02:08:47;;;;;;;21.92;16.10;;;4.80;99.90;;;;;;5134847;27;20035;-57
2023/04/08 02:11:13;;;;;;;20.80;15.88;;;4.80;99.90;;;;;;5134787;27;20043;-57
2023/04/08 02:13:39;;;;;;;21.10;15.70;;;4.80;99.90;;;;;;5135072;27;20072;-56
2023/04/08 02:16:47;;;;;;;22.95;16.05;;;4.70;99.90;;;;;;5135289;27;20035;-57
2023/04/08 02:19:30;;;;;;;24.00;17.17;;;4.70;99.90;;;;;;5134679;27;20036;-57
2023/04/08 02:22:04;;;;;;;21.45;15.73;;;4.80;99.90;;;;;;5134381;27;20553;-57
2023/04/08 02:24:32;;;;;;;21.45;15.55;;;4.70;99.90;;;;;;5134790;27;20087;-57
2023/04/08 02:26:59;;;;;;;21.52;15.88;;;4.70;99.90;;;;;;5134922;27;20035;-57
2023/04/08 02:29:28;;;;;;;24.55;16.85;;;4.60;99.90;;;;;;5134517;27;20063;-57
2023/04/08 02:31:55;;;;;;;23.67;16.48;;;4.70;99.90;;;;;;5134459;27;20035;-60
2023/04/08 02:34:22;;;;;;;25.30;16.65;;;4.60;99.90;;;;;;5134457;27;20124;-57
2023/04/08 02:36:50;;;;;;;22.50;16.65;;;4.60;99.90;;;;;;5134013;27;20043;-56
2023/04/08 02:39:16;;;;;;;23.25;17.05;;;4.60;99.90;;;;;;5134334;27;20035;-57
2023/04/08 02:41:41;;;;;;;23.52;17.08;;;4.60;99.90;;;;;;5134285;27;20088;-57
2023/04/08 02:44:09;;;;;;;25.42;16.85;;;4.50;99.90;;;;;;5134353;27;20035;-57
2023/04/08 02:46:34;;;;;;;25.35;16.70;;;4.60;99.90;;;;;;5134215;27;20043;-56
2023/04/08 02:49:00;;;;;;;22.23;16.88;;;4.60;99.90;;;;;;5116011;27;20050;-57
2023/04/08 02:51:26;;;;;;;26.55;18.17;;;4.60;99.90;;;;;;5134389;27;20371;-57
2023/04/08 02:53:52;;;;;;;29.23;17.55;;;4.60;99.90;;;;;;5134466;27;20035;-57
2023/04/08 02:56:18;;;;;;;23.77;17.52;;;4.60;99.90;;;;;;5133924;27;20035;-57
2023/04/08 02:58:44;;;;;;;21.80;16.50;;;4.80;99.90;;;;;;5134034;27;20385;-57
2023/04/08 03:01:10;;;;;;;23.35;17.05;;;4.50;99.90;;;;;;5127839;27;20046;-57
2023/04/08 03:03:36;;;;;;;23.52;16.27;;;4.50;99.90;;;;;;5154417;27;20045;-57
2023/04/08 03:06:03;;;;;;;23.75;17.20;;;4.50;99.90;;;;;;5125413;27;20043;-57
2023/04/08 03:08:28;;;;;;;21.65;16.55;;;4.60;99.90;;;;;;5133802;27;20043;-56
2023/04/08 03:10:54;;;;;;;24.45;17.25;;;4.50;99.90;;;;;;5142112;27;20084;-57
2023/04/08 03:13:20;;;;;;;23.23;16.35;;;4.50;99.90;;;;;;5154539;27;20087;-57
2023/04/08 03:15:45;;;;;;;27.05;17.42;;;4.50;99.90;;;;;;5147891;27;20027;-57
2023/04/08 03:18:11;;;;;;;23.20;18.13;;;4.40;99.90;;;;;;5133257;27;20476;-57
2023/04/08 03:20:37;;;;;;;22.02;17.05;;;4.50;99.90;;;;;;5114536;27;20043;-57
2023/04/08 03:23:02;;;;;;;21.65;17.95;;;4.40;99.90;;;;;;5115307;27;20062;-56
2023/04/08 03:25:28;;;;;;;24.00;17.70;;;4.50;99.90;;;;;;5133372;27;20038;-57
2023/04/08 03:27:54;;;;;;;27.08;19.50;;;4.40;99.90;;;;;;5133404;27;20095;-57
2023/04/08 03:30:20;;;;;;;25.98;19.33;;;4.40;99.90;;;;;;5137761;27;20046;-57
2023/04/08 03:32:46;;;;;;;27.45;18.95;;;4.40;99.90;;;;;;5154064;27;20038;-57
2023/04/08 03:35:11;;;;;;;27.55;18.63;;;4.40;99.90;;;;;;5154238;27;20437;-57
2023/04/08 03:37:37;;;;;;;26.55;18.45;;;4.30;99.90;;;;;;5154599;27;20042;-56
2023/04/08 03:40:03;;;;;;;27.70;18.75;;;4.40;99.90;;;;;;5153717;27;20027;-57
2023/04/08 03:42:29;;;;;;;24.70;18.58;;;4.40;99.90;;;;;;5153957;27;20034;-56
2023/04/08 03:44:54;;;;;;;26.42;19.27;;;4.40;99.90;;;;;;5153903;27;20043;-57
2023/04/08 03:47:20;;;;;;;28.85;20.33;;;4.20;99.90;;;;;;5152755;27;20496;-57
2023/04/08 03:49:46;;;;;;;25.95;20.17;;;4.30;99.90;;;;;;5153919;27;20125;-57
2023/04/08 03:52:11;;;;;;;33.28;22.05;;;4.30;99.90;;;;;;5153865;27;20043;-57
2023/04/08 03:54:37;;;;;;;29.40;21.48;;;4.20;99.90;;;;;;5153883;27;20038;-57
2023/04/08 03:57:03;;;;;;;29.45;21.25;;;4.20;99.90;;;;;;5153439;27;20161;-57
2023/04/08 03:59:28;;;;;;;29.10;21.58;;;4.20;99.90;;;;;;5153538;27;20035;-57
2023/04/08 04:01:54;;;;;;;31.58;21.90;;;4.30;99.90;;;;;;5136481;27;20035;-57
2023/04/08 04:04:20;;;;;;;30.88;22.15;;;4.30;99.90;;;;;;5132988;28;20043;-57
2023/04/08 04:06:45;;;;;;;30.52;21.60;;;4.30;99.90;;;;;;5114667;28;20031;-57
2023/04/08 04:09:11;;;;;;;33.83;22.75;;;4.30;99.90;;;;;;5132914;28;20487;-56
2023/04/08 04:11:37;;;;;;;32.22;22.35;;;4.30;99.90;;;;;;5132850;27;20071;-57
2023/04/08 04:14:03;;;;;;;32.97;22.52;;;4.30;99.90;;;;;;5114698;28;20043;-57
2023/04/08 04:16:28;;;;;;;31.80;22.00;;;4.30;99.90;;;;;;5132843;27;20533;-57
2023/04/08 04:18:54;;;;;;;32.95;23.05;;;4.20;99.90;;;;;;5132800;28;20042;-57
2023/04/08 04:21:20;;;;;;;27.52;21.05;;;4.30;99.90;;;;;;5132640;27;20374;-57
2023/04/08 04:23:46;;;;;;;31.33;22.92;;;4.20;99.90;;;;;;5132936;28;20039;-57
2023/04/08 04:26:11;;;;;;;31.58;22.23;;;4.30;99.90;;;;;;5141862;27;20034;-57
2023/04/08 04:28:37;;;;;;;29.00;21.15;;;4.20;99.90;;;;;;5153445;27;20035;-57
2023/04/08 04:31:03;;;;;;;30.73;21.35;;;4.30;99.90;;;;;;5145844;27;20050;-57
2023/04/08 04:33:30;;;;;;;30.50;21.58;;;4.30;99.90;;;;;;5114155;27;20045;-57
2023/04/08 04:35:56;;;;;;;27.38;19.83;;;4.30;99.90;;;;;;5119516;27;20039;-56
2023/04/08 04:38:21;;;;;;;26.70;21.00;;;4.20;99.90;;;;;;5153273;27;20031;-57
2023/04/08 04:40:47;;;;;;;32.25;22.13;;;4.30;99.90;;;;;;5153180;27;20369;-56
2023/04/08 04:43:13;;;;;;;32.55;22.23;;;4.30;99.90;;;;;;5153271;27;20134;-56
2023/04/08 04:45:38;;;;;;;30.00;22.48;;;4.30;99.90;;;;;;5153149;27;20070;-56
2023/04/08 04:48:04;;;;;;;30.75;21.48;;;4.30;99.90;;;;;;5134917;27;20099;-57
2023/04/08 04:50:30;;;;;;;29.23;21.67;;;4.30;99.90;;;;;;5153234;27;20093;-57
2023/04/08 04:52:55;;;;;;;29.08;21.25;;;4.40;99.90;;;;;;5153098;27;20384;-56
2023/04/08 04:55:21;;;;;;;27.83;20.15;;;4.40;99.90;;;;;;5153045;27;20035;-57
2023/04/08 04:57:48;;;;;;;31.20;21.23;;;4.40;99.90;;;;;;5132547;28;20039;-57
2023/04/08 05:00:14;;;;;;;31.30;22.30;;;4.40;99.90;;;;;;5135561;27;20104;-56
2023/04/08 05:02:40;;;;;;;32.85;22.40;;;4.30;99.90;;;;;;5155474;27;20045;-57
2023/04/08 05:05:06;;;;;;;30.92;21.85;;;4.40;99.90;;;;;;5156884;27;20038;-57
2023/04/08 05:07:35;;;;;;;29.42;20.58;;;4.40;99.90;;;;;;5139292;27;20031;-57
2023/04/08 05:10:01;;;;;;;;;;;4.40;99.90;;;;;;5137072;27;20108;-57
2023/04/08 05:12:27;;;;;;;31.85;21.75;;;4.50;99.90;;;;;;5151892;27;19915;-56
2023/04/08 05:14:52;;;;;;;31.42;21.45;;;4.40;99.90;;;;;;5156325;27;20117;-56
2023/04/08 05:17:18;;;;;;;34.92;21.85;;;4.40;99.90;;;;;;5156751;27;20039;-57
2023/04/08 05:19:43;;;;;;;32.90;21.60;;;4.50;99.90;;;;;;5156689;27;20035;-57
2023/04/08 05:22:09;;;;;;;29.58;21.77;;;4.50;99.90;;;;;;5156335;27;20526;-57
2023/04/08 05:24:35;;;;;;;31.83;21.25;;;4.60;99.90;;;;;;5137769;27;20082;-57
2023/04/08 05:27:01;;;;;;;31.30;22.35;;;4.60;99.90;;;;;;5142628;27;20078;-57
2023/04/08 05:29:27;;;;;;;34.65;22.52;;;4.60;99.90;;;;;;5117305;27;20031;-56
2023/04/08 05:31:52;;;;;;;31.20;22.27;;;4.60;99.90;;;;;;5135498;27;20093;-57
2023/04/08 05:34:21;;;;;;;35.92;21.90;;;4.70;99.90;;;;;;5135567;27;20035;-57
2023/04/08 05:36:50;;;;;;;29.80;22.33;;;4.70;99.90;;;;;;5135720;27;20032;-57
2023/04/08 05:39:17;;;;;;;;;;;4.80;99.90;;;;;;5135876;27;20046;-57
2023/04/08 05:41:43;;;;;;;32.03;21.98;;;4.80;99.90;;;;;;5135080;27;20033;-57
2023/04/08 05:44:09;;;;;;;31.27;21.95;;;4.80;99.90;;;;;;5135303;27;20050;-56
2023/04/08 05:46:37;;;;;;;31.77;21.67;;;4.80;99.90;;;;;;5135285;27;20039;-57
2023/04/08 05:49:02;;;;;;;32.63;22.98;;;4.80;99.90;;;;;;5135400;27;20114;-56
2023/04/08 05:51:28;;;;;;;34.08;22.50;;;4.80;99.90;;;;;;5135469;27;20110;-57
2023/04/08 05:53:54;;;;;;;30.05;22.52;;;4.90;99.90;;;;;;5135304;27;20035;-56
2023/04/08 05:56:19;;;;;;;31.20;23.00;;;4.90;99.90;;;;;;5123808;27;20046;-56
2023/04/08 05:58:46;;;;;;;36.78;23.35;;;5.00;99.90;;;;;;5136947;27;20464;-57
2023/04/08 06:01:11;;;;;;;29.08;22.58;;;5.20;99.90;;;;;;5156039;27;20384;-57
2023/04/08 06:03:37;;;;;;;31.80;23.42;;;5.10;99.90;;;;;;5155806;27;20026;-56
2023/04/08 06:06:03;;;;;;;33.58;23.27;;;5.20;99.90;;;;;;5155933;27;20043;-56
2023/04/08 06:08:28;;;;;;;34.42;24.33;;;5.40;99.90;;;;;;5155840;27;20043;-57
2023/04/08 06:10:54;;;;;;;35.75;23.45;;;5.40;99.90;;;;;;5136080;27;20043;-57
2023/04/08 06:13:20;;;;;;;29.67;21.42;;;5.50;99.90;;;;;;5155439;27;20034;-56
2023/04/08 06:15:47;;;;;;;31.90;22.13;;;5.50;99.90;;;;;;5155516;27;20053;-58
2023/04/08 06:18:15;;;;;;;32.05;21.95;;;5.60;99.90;;;;;;5155470;27;20488;-57
2023/04/08 06:20:41;;;;;;;28.15;20.63;;;5.80;99.90;;;;;;5147695;27;20039;-57
2023/04/08 06:23:06;;;;;;;30.85;20.98;;;5.80;99.90;;;;;;5134562;27;20041;-56
2023/04/08 06:25:32;;;;;;;31.33;21.83;;;5.90;99.90;;;;;;5139750;27;20479;-57
2023/04/08 06:27:58;;;;;;;27.10;20.63;;;5.90;99.90;;;;;;5136320;27;20031;-57
2023/04/08 06:30:23;;;;;;;30.88;21.17;;;6.20;99.90;;;;;;5137690;27;20476;-57
2023/04/08 06:32:49;;;;;;;28.17;19.88;;;6.30;99.90;;;;;;5155032;27;20638;-57
2023/04/08 06:35:14;;;;;;;27.77;20.08;;;6.60;99.90;;;;;;5155403;27;20121;-57
2023/04/08 06:37:40;;;;;;;25.70;18.80;;;6.90;99.90;;;;;;5155137;27;20038;-59
2023/04/08 06:40:06;;;;;;;26.70;18.17;;;7.00;99.90;;;;;;5155092;27;20039;-57
2023/04/08 06:42:32;;;;;;;22.27;17.48;;;6.90;99.90;;;;;;5154867;27;20444;-57
2023/04/08 06:44:58;;;;;;;21.27;17.17;;;6.80;99.90;;;;;;5155199;27;20125;-57
2023/04/08 06:47:24;;;;;;;22.98;16.20;;;6.70;99.90;;;;;;5154912;27;20041;-57
2023/04/08 06:49:49;;;;;;;24.50;17.05;;;6.70;99.90;;;;;;5135824;27;20057;-57
2023/04/08 06:52:15;;;;;;;22.77;15.85;;;6.80;99.90;;;;;;5154974;27;20477;-57
2023/04/08 06:54:42;;;;;;;22.10;15.82;;;6.80;99.90;;;;;;5154992;27;20053;-57
2023/04/08 06:57:08;;;;;;;21.35;16.73;;;6.80;99.90;;;;;;5135984;27;20434;-56
2023/04/08 06:59:34;;;;;;;20.05;15.32;;;6.90;99.90;;;;;;5155004;27;20148;-57
2023/04/08 07:01:59;;;;;;;20.08;16.05;;;7.00;99.90;;;;;;5146840;27;20074;-56
2023/04/08 07:04:25;;;;;;;19.77;15.60;;;7.10;99.90;;;;;;5137821;27;20545;-57
2023/04/08 07:06:51;;;;;;;22.00;16.45;;;7.00;99.90;;;;;;5154470;27;20078;-57
2023/04/08 07:09:17;;;;;;;21.13;15.77;;;7.10;99.90;;;;;;5135118;27;20122;-57
2023/04/08 07:11:42;;;;;;;22.33;15.55;;;7.20;99.90;;;;;;5154919;27;20034;-57
2023/04/08 07:14:08;;;;;;;18.27;15.23;;;7.10;99.90;;;;;;5154744;27;20088;-57
2023/04/08 07:16:34;;;;;;;18.75;14.35;;;7.20;99.90;;;;;;5154549;27;20101;-57
2023/04/08 07:19:00;;;;;;;20.50;15.20;;;7.30;99.90;;;;;;5154487;27;20400;-57
2023/04/08 07:21:26;;;;;;;19.58;14.75;;;7.30;99.90;;;;;;5153885;27;20385;-57
2023/04/08 07:23:52;;;;;;;20.75;14.40;;;7.30;99.90;;;;;;5135500;27;20049;-57
2023/04/08 07:26:18;;;;;;;18.65;14.57;;;7.40;99.90;;;;;;5153809;27;20034;-57
2023/04/08 07:28:43;;;;;;;18.77;15.32;;;7.60;99.90;;;;;;5154255;27;20034;-57
2023/04/08 07:31:10;;;;;;;18.65;14.30;;;7.70;99.90;;;;;;5151903;27;20058;-57
2023/04/08 07:33:36;;;;;;;20.63;14.73;;;7.70;99.90;;;;;;5114869;27;20051;-57
2023/04/08 07:36:02;;;;;;;18.08;13.45;;;7.70;99.90;;;;;;5114363;27;20050;-57
2023/04/08 07:38:27;;;;;;;15.30;13.45;;;7.80;99.90;;;;;;5133396;27;20031;-57
2023/04/08 07:40:53;;;;;;;16.42;13.82;;;7.70;99.90;;;;;;5133566;27;20497;-57
2023/04/08 07:43:19;;;;;;;16.60;12.88;;;7.80;99.90;;;;;;5133143;27;20027;-57
2023/04/08 07:45:45;;;;;;;16.80;12.82;;;7.80;99.90;;;;;;5133566;27;20039;-57
2023/04/08 07:48:11;;;;;;;16.25;12.88;;;7.90;99.90;;;;;;5133413;27;20118;-57
2023/04/08 07:50:37;;;;;;;15.18;12.52;;;7.90;99.90;;;;;;5133221;27;20121;-57
2023/04/08 07:53:02;;;;;;;16.17;12.95;;;7.90;99.90;;;;;;5133079;27;20071;-57
2023/04/08 07:55:32;;;;;;;14.90;11.90;;;7.80;99.90;;;;;;5114891;28;20456;-57
2023/04/08 07:57:58;;;;;;;16.20;12.52;;;7.90;99.90;;;;;;5149541;27;20035;-57
2023/04/08 08:00:24;;;;;;;14.98;12.50;;;7.90;99.90;;;;;;5153894;27;20118;-57
2023/04/08 08:02:50;;;;;;;15.75;13.45;;;8.00;99.90;;;;;;5138937;27;20041;-57
2023/04/08 08:05:15;;;;;;;15.98;12.98;;;8.10;99.90;;;;;;5133005;27;20434;-57
2023/04/08 08:07:41;;;;;;;16.58;13.23;;;8.10;99.90;;;;;;5132962;28;20043;-57
2023/04/08 08:10:07;;;;;;;15.90;12.27;;;8.10;99.90;;;;;;5114687;28;20039;-57
2023/04/08 08:12:33;;;;;;;12.95;11.55;;;8.20;99.90;;;;;;5133142;27;20043;-57
2023/04/08 08:14:59;;;;;;;14.45;11.80;;;8.30;99.90;;;;;;5132846;27;20481;-57
2023/04/08 08:17:25;;;;;;;15.77;12.13;;;8.50;99.90;;;;;;5133042;28;20058;-57
2023/04/08 08:19:50;;;;;;;18.00;13.18;;;8.80;99.90;;;;;;5114760;28;20039;-57
2023/04/08 08:22:16;;;;;;;14.98;11.43;;;8.90;99.90;;;;;;5132774;28;20055;-57
2023/04/08 08:24:42;;;;;;;14.55;11.88;;;9.10;99.90;;;;;;5132867;27;20464;-58
2023/04/08 08:27:10;;;;;;;14.95;11.65;;;9.20;99.90;;;;;;5132863;27;20039;-58
2023/04/08 08:29:36;;;;;;;13.07;11.52;;;9.30;99.90;;;;;;5133176;27;20031;-57
2023/04/08 08:32:02;;;;;;;15.35;12.45;;;9.30;99.90;;;;;;5079798;28;20047;-57
2023/04/08 08:34:28;;;;;;;16.20;11.95;;;9.10;99.90;;;;;;5134741;27;20114;-57
2023/04/08 08:36:54;;;;;;;14.00;11.85;;;9.00;99.90;;;;;;5137140;27;20110;-57
2023/04/08 08:39:20;;;;;;;14.57;11.57;;;8.90;99.90;;;;;;5136798;27;20504;-58
2023/04/08 08:41:46;;;;;;;14.70;11.75;;;8.80;99.90;;;;;;5117841;27;20129;-57
2023/04/08 08:44:12;;;;;;;13.45;11.43;;;8.70;99.90;;;;;;5136732;27;20537;-57
2023/04/08 08:46:43;;;;;;;17.30;13.13;;;8.60;99.90;;;;;;5136531;27;20518;-58
2023/04/08 08:49:09;;;;;;;15.75;13.27;;;8.60;99.90;;;;;;5133794;27;20862;-57
2023/04/08 08:51:37;;;;;;;13.85;12.07;;;8.60;99.90;;;;;;5143063;27;20508;-57
2023/04/08 08:54:03;;;;;;;13.85;11.75;;;8.50;99.90;;;;;;5140044;27;20043;-58
2023/04/08 08:56:29;;;;;;;16.75;12.55;;;8.50;99.90;;;;;;5130588;27;20043;-57
2023/04/08 08:58:55;;;;;;;19.02;14.40;;;8.40;99.90;;;;;;5146936;27;20035;-58
2023/04/08 09:01:40;;;;;;;18.58;13.80;;;8.40;99.90;;;;;;5142292;27;20380;-57
2023/04/08 09:04:15;;;;;;;16.90;13.63;;;8.40;99.90;;;;;;5140145;27;20077;-57
2023/04/08 09:06:42;;;;;;;19.35;14.38;;;8.20;99.90;;;;;;5129092;27;20080;-57
2023/04/08 09:09:11;;;;;;;16.92;12.68;;;8.20;99.90;;;;;;5130735;27;20074;-57
2023/04/08 09:11:44;;;;;;;15.60;13.45;;;8.20;99.90;;;;;;5121370;27;20047;-57
2023/04/08 09:14:24;;;;;;;16.48;12.75;;;8.10;99.90;;;;;;5122198;27;20046;-57
2023/04/08 09:16:51;;;;;;;18.67;13.73;;;8.10;99.90;;;;;;5146264;27;20077;-57
2023/04/08 09:19:16;;;;;;;15.30;13.05;;;8.10;99.90;;;;;;5149545;27;20463;-57
2023/04/08 09:21:42;;;;;;;18.73;13.55;;;8.10;99.90;;;;;;5138577;27;20134;-58
2023/04/08 09:24:25;;;;;;;18.65;13.73;;;8.10;99.90;;;;;;5138442;27;20115;-57
2023/04/08 09:26:51;;;;;;;17.95;13.23;;;8.10;99.90;;;;;;5146210;27;20062;-58
2023/04/08 09:29:16;;;;;;;16.83;12.63;;;8.20;99.90;;;;;;5148799;27;20361;-57
2023/04/08 09:31:42;;;;;;;16.15;12.90;;;8.20;99.90;;;;;;5120507;27;20473;-57
2023/04/08 09:34:18;;;;;;;16.83;12.43;;;8.20;99.90;;;;;;5153271;27;20035;-57
2023/04/08 09:36:44;;;;;;;15.23;11.30;;;8.20;99.90;;;;;;5146948;27;20428;-57
2023/04/08 09:39:10;;;;;;;13.93;11.40;;;8.30;99.90;;;;;;5135126;27;20051;-57
2023/04/08 09:41:37;;;;;;;15.05;10.93;;;8.30;99.90;;;;;;5123285;27;20034;-57
2023/04/08 09:44:05;;;;;;;12.43;9.90;;;8.30;99.90;;;;;;5152221;27;20419;-57
2023/04/08 09:46:48;;;;;;;15.32;9.82;;;8.30;99.90;;;;;;5142281;27;20083;-57
2023/04/08 09:49:37;;;;;;;13.88;9.88;;;8.40;99.90;;;;;;5156319;27;20432;-57
2023/04/08 09:52:19;;;;;;;13.50;10.68;;;8.50;99.90;;;;;;5155085;27;20042;-57
2023/04/08 09:55:03;;;;;;;14.13;10.32;;;8.60;99.90;;;;;;5136266;27;20050;-57
2023/04/08 09:57:45;;;;;;;17.85;11.20;;;8.80;99.90;;;;;;5155662;27;20051;-58
2023/04/08 10:00:15;;;;;;;15.85;11.95;;;8.80;99.90;;;;;;5155699;27;20116;-57
2023/04/08 10:02:55;;;;;;;16.40;12.55;;;8.90;99.90;;;;;;5155617;27;20038;-58
2023/04/08 10:05:23;;;;;;;18.25;13.00;;;9.00;99.90;;;;;;5155933;27;20054;-57
2023/04/08 10:07:50;;;;;;;18.30;12.38;;;9.00;99.90;;;;;;5155842;27;20043;-57
2023/04/08 10:10:16;;;;;;;15.35;11.30;;;9.00;99.90;;;;;;5155921;27;20535;-57
2023/04/08 10:12:42;;;;;;;14.18;11.02;;;9.10;99.90;;;;;;5137500;27;20034;-57
2023/04/08 10:15:31;;;;;;;15.95;11.00;;;9.10;99.90;;;;;;5137155;27;20070;-57
2023/04/08 10:18:05;;;;;;;14.05;11.23;;;9.20;99.90;;;;;;5151944;27;20042;-57
2023/04/08 10:20:34;;;;;;;14.48;10.60;;;9.20;99.90;;;;;;5155687;27;20035;-57
2023/04/08 10:23:00;;;;;;;;;;;9.20;99.90;;;;;;5155894;27;20051;-57
2023/04/08 10:25:31;;;;;;;18.42;12.13;;;9.20;99.90;;;;;;5155323;27;19952;-57
2023/04/08 10:27:56;;;;;;;16.98;11.27;;;9.20;99.90;;;;;;5153755;27;20030;-57
2023/04/08 10:30:30;;;;;;;16.98;12.15;;;9.10;99.90;;;;;;5136810;27;20041;-57
2023/04/08 10:32:59;;;;;;;14.85;11.93;;;9.20;99.90;;;;;;5155284;27;20167;-57
2023/04/08 10:35:29;;;;;;;;;;;9.10;99.90;;;;;;5155467;27;20498;-57
2023/04/08 10:37:54;;;;;;;20.20;12.57;;;9.20;99.90;;;;;;5152352;27;19923;-57
2023/04/08 10:40:20;;;;;;;17.58;12.23;;;9.20;99.90;;;;;;5146445;27;20093;-59
2023/04/08 10:42:46;;;;;;;17.23;13.20;;;9.30;99.90;;;;;;5145879;27;20058;-62
2023/04/08 10:45:16;;;;;;;20.10;13.80;;;9.30;99.90;;;;;;5155200;27;20042;-59
2023/04/08 10:47:42;;;;;;;20.67;14.40;;;9.30;99.90;;;;;;5144710;27;20578;-59
2023/04/08 10:50:16;;;;;;;19.27;14.05;;;9.20;99.90;;;;;;5155041;27;20034;-59
2023/04/08 10:52:47;;;;;;;18.80;13.50;;;9.30;99.90;;;;;;5155756;27;20049;-60
2023/04/08 10:55:14;;;;;;;19.00;12.52;;;9.40;99.90;;;;;;5137596;27;20087;-59
2023/04/08 10:57:40;;;;;;;20.13;13.25;;;9.40;99.90;;;;;;5152249;27;20189;-59
2023/04/08 11:00:10;;;;;;;16.85;12.73;;;9.40;99.90;;;;;;5154351;27;20035;-58
2023/04/08 11:02:38;;;;;;;19.60;13.55;;;9.50;99.90;;;;;;5151478;27;20030;-57
2023/04/08 11:05:04;;;;;;;18.67;12.75;;;9.50;99.90;;;;;;5154778;27;20034;-57
2023/04/08 11:07:30;;;;;;;17.42;13.38;;;9.50;99.90;;;;;;5135891;27;20134;-57
2023/04/08 11:09:55;;;;;;;20.45;13.20;;;9.50;99.90;;;;;;5134664;27;20113;-56
2023/04/08 11:12:21;;;;;;;18.30;13.43;;;9.40;99.90;;;;;;5135571;27;20043;-57
2023/04/08 11:14:48;;;;;;;21.08;13.63;;;9.50;99.90;;;;;;5134965;27;20050;-57
2023/04/08 11:17:15;;;;;;;20.73;13.65;;;9.70;99.90;;;;;;5148944;27;20038;-58
2023/04/08 11:19:41;;;;;;;20.00;13.73;;;9.70;99.90;;;;;;5152907;27;20079;-57
2023/04/08 11:22:08;;;;;;;22.33;14.30;;;9.70;99.90;;;;;;5147327;27;20516;-57
2023/04/08 11:24:36;;;;;;;20.98;13.80;;;9.70;99.90;;;;;;5149481;27;20103;-57
2023/04/08 11:27:05;;;;;;;23.53;15.27;;;9.80;99.90;;;;;;5135078;27;20078;-57
2023/04/08 11:29:32;;;;;;;20.55;15.43;;;9.90;99.90;;;;;;5147752;27;20351;-58
2023/04/08 11:31:58;;;;;;;23.00;15.55;;;9.80;99.90;;;;;;5154076;27;20465;-57
2023/04/08 11:34:24;;;;;;;28.08;16.58;;;9.80;99.90;;;;;;5151558;27;20041;-57
2023/04/08 11:36:50;;;;;;;23.50;15.65;;;9.90;99.90;;;;;;5152029;27;20117;-57
2023/04/08 11:39:16;;;;;;;25.25;17.40;;;10.00;99.90;;;;;;5149532;27;20031;-57
2023/04/08 11:41:42;;;;;;;23.95;15.90;;;9.90;99.90;;;;;;5151749;27;20091;-57
2023/04/08 11:44:08;;;;;;;33.15;18.13;;;9.90;99.90;;;;;;5153851;27;20083;-57
2023/04/08 11:46:34;;;;;;;28.33;17.30;;;10.00;99.90;;;;;;5153776;27;20426;-57
2023/04/08 11:49:10;;;;;;;29.27;17.60;;;10.00;99.90;;;;;;5154144;27;20448;-57
2023/04/08 11:51:55;;;;;;;26.10;16.98;;;10.00;99.90;;;;;;5132202;27;20050;-56
2023/04/08 11:54:31;;;;;;;24.08;15.73;;;10.10;99.90;;;;;;5153767;27;20074;-57
2023/04/08 11:56:57;;;;;;;24.77;14.27;;;10.10;99.90;;;;;;5153836;27;20062;-57
2023/04/08 11:59:26;;;;;;;21.80;14.80;;;10.20;99.90;;;;;;5153518;27;20395;-57
2023/04/08 12:01:52;;;;;;;25.42;15.93;;;10.20;99.90;;;;;;5133770;27;20135;-57
2023/04/08 12:04:18;;;;;;;21.25;15.43;;;10.10;99.90;;;;;;5153654;27;20040;-57
2023/04/08 12:06:45;;;;;;;21.05;15.60;;;10.20;99.90;;;;;;5153794;27;20031;-57
2023/04/08 12:09:12;;;;;;;22.27;16.58;;;10.10;99.90;;;;;;5147742;27;20050;-57
2023/04/08 12:11:38;;;;;;;24.67;17.08;;;10.20;99.90;;;;;;5120721;27;20486;-57
2023/04/08 12:14:04;;;;;;;23.90;16.27;;;10.30;99.90;;;;;;5150251;27;20052;-57
2023/04/08 12:16:30;;;;;;;23.85;16.58;;;10.20;99.90;;;;;;5139399;27;20049;-57
2023/04/08 12:18:55;;;;;;;25.42;16.70;;;10.30;99.90;;;;;;5154698;27;20046;-58
2023/04/08 12:21:21;;;;;;;23.23;17.17;;;10.30;99.90;;;;;;5156781;27;20137;-57
2023/04/08 12:23:47;;;;;;;25.63;17.70;;;10.30;99.90;;;;;;5157796;27;20038;-58
2023/04/08 12:26:13;;;;;;;26.95;18.00;;;10.30;99.90;;;;;;5157079;27;20111;-57
2023/04/08 12:28:39;;;;;;;25.13;17.63;;;10.40;99.90;;;;;;5145451;27;20062;-58
2023/04/08 12:31:04;;;;;;;23.83;17.77;;;10.40;99.90;;;;;;5136918;27;20065;-58
2023/04/08 12:33:31;;;;;;;23.83;16.83;;;10.40;99.90;;;;;;5146618;27;20034;-57
2023/04/08 12:35:57;;;;;;;24.90;15.57;;;10.40;99.90;;;;;;5157996;27;20026;-58
2023/04/08 12:38:25;;;;;;;24.80;17.48;;;10.30;99.90;;;;;;5134439;27;20074;-59